createdAt,value
2019-01-21T00:01:45.837Z,4.03
2019-01-21T00:04:16.807Z,7.03
2019-01-21T00:06:47.529Z,10.03
2019-01-21T00:09:18.745Z,6.53
2019-01-21T00:11:49.833Z,6.30
2019-01-21T00:14:20.643Z,5.17
2019-01-21T00:16:51.473Z,7.30
2019-01-21T00:19:27.545Z,12.67
2019-01-21T00:21:58.404Z,12.03
2019-01-21T00:24:28.997Z,10.67
2019-01-21T00:26:59.805Z,8.00
2019-01-21T00:29:31.087Z,9.57
2019-01-21T00:32:01.845Z,10.17
2019-01-21T00:34:33.090Z,7.83
2019-01-21T00:37:04.201Z,4.93
2019-01-21T00:39:37.237Z,6.20
2019-01-21T00:42:08.035Z,4.53
2019-01-21T00:44:38.818Z,5.23
2019-01-21T00:47:09.394Z,3.77
2019-01-21T00:49:40.144Z,2.97
2019-01-21T00:52:11.384Z,2.83
2019-01-21T00:54:42.356Z,3.00
2019-01-21T00:57:13.261Z,3.37
2019-01-21T00:59:44.306Z,1.93
2019-01-21T01:02:15.353Z,3.53
2019-01-21T01:04:46.085Z,2.87
2019-01-21T01:07:17.153Z,2.77
2019-01-21T01:09:48.067Z,3.40
2019-01-21T01:12:18.964Z,2.53
2019-01-21T01:14:49.815Z,3.13
2019-01-21T01:17:21.005Z,2.23
2019-01-21T01:19:51.919Z,3.63
2019-01-21T01:22:22.612Z,1.53
2019-01-21T01:24:53.404Z,1.83
2019-01-21T01:27:24.431Z,3.13
2019-01-21T01:29:55.393Z,2.43
2019-01-21T01:32:26.352Z,3.20
2019-01-21T01:34:57.331Z,2.33
2019-01-21T01:37:28.301Z,2.07
2019-01-21T01:39:59.109Z,1.27
2019-01-21T01:42:30.299Z,2.63
2019-01-21T01:45:01.017Z,4.10
2019-01-21T01:47:32.431Z,1.53
2019-01-21T01:50:03.424Z,2.73
2019-01-21T01:52:34.110Z,1.30
2019-01-21T01:55:06.788Z,1.63
2019-01-21T01:57:37.453Z,2.57
2019-01-21T02:00:11.563Z,1.97
2019-01-21T02:02:42.952Z,2.10
2019-01-21T02:05:13.691Z,1.90
2019-01-21T02:07:44.589Z,1.67
2019-01-21T02:10:15.803Z,2.07
2019-01-21T02:12:47.392Z,1.47
2019-01-21T02:15:18.309Z,1.20
2019-01-21T02:17:52.162Z,2.03
2019-01-21T02:20:22.156Z,3.60
2019-01-21T02:22:55.953Z,1.53
2019-01-21T02:25:34.953Z,2.30
2019-01-21T02:28:19.777Z,1.73
2019-01-21T02:31:31.802Z,2.30
2019-01-21T02:34:23.579Z,2.73
2019-01-21T02:37:41.418Z,2.73
2019-01-21T02:41:13.969Z,2.30
2019-01-21T02:44:05.628Z,2.53
2019-01-21T02:47:17.026Z,1.80
2019-01-21T02:50:52.979Z,2.37
2019-01-21T02:54:05.296Z,2.20
2019-01-21T02:56:53.061Z,2.40
2019-01-21T02:59:57.806Z,1.83
2019-01-21T03:03:27.892Z,2.57
2019-01-21T03:06:41.973Z,2.40
2019-01-21T03:09:45.037Z,1.67
2019-01-21T03:12:31.369Z,2.40
2019-01-21T03:15:31.656Z,1.83
2019-01-21T03:18:44.874Z,1.70
2019-01-21T03:21:59.591Z,1.30
2019-01-21T03:24:50.746Z,2.33
2019-01-21T03:28:06.060Z,1.87
2019-01-21T03:31:27.098Z,2.67
2019-01-21T03:34:11.018Z,2.20
2019-01-21T03:37:18.113Z,2.20
2019-01-21T03:40:19.756Z,2.23
2019-01-21T03:43:28.376Z,1.37
2019-01-21T03:46:43.380Z,1.97
2019-01-21T03:49:21.265Z,2.00
2019-01-21T03:52:41.237Z,2.53
2019-01-21T03:55:15.074Z,0.80
2019-01-21T03:58:03.298Z,1.53
2019-01-21T04:01:23.968Z,1.40
2019-01-21T04:04:46.554Z,1.13
2019-01-21T04:07:50.753Z,1.30
2019-01-21T04:10:48.437Z,2.90
2019-01-21T04:14:09.350Z,2.63
2019-01-21T04:17:02.379Z,1.27
2019-01-21T04:20:18.648Z,1.67
2019-01-21T04:23:48.433Z,3.60
2019-01-21T04:26:52.137Z,2.00
2019-01-21T04:30:03.848Z,1.47
2019-01-21T04:32:52.664Z,2.37
2019-01-21T04:36:05.726Z,1.83
2019-01-21T04:39:22.069Z,2.67
2019-01-21T04:42:39.604Z,2.93
2019-01-21T04:45:24.609Z,1.60
2019-01-21T04:48:17.761Z,1.90
2019-01-21T04:51:44.573Z,3.10
2019-01-21T04:55:01.818Z,2.53
2019-01-21T04:57:58.432Z,2.17
2019-01-21T05:01:09.189Z,3.23
2019-01-21T05:04:23.637Z,3.23
2019-01-21T05:07:31.014Z,1.23
2019-01-21T05:10:34.566Z,1.80
2019-01-21T05:13:52.630Z,1.33
2019-01-21T05:16:56.366Z,2.35
2019-01-21T05:20:07.376Z,2.23
2019-01-21T05:23:24.947Z,1.95
2019-01-21T05:26:28.774Z,1.97
2019-01-21T05:29:15.105Z,4.10
2019-01-21T05:32:25.679Z,1.13
2019-01-21T05:35:21.609Z,1.77
2019-01-21T05:38:17.732Z,1.13
2019-01-21T05:41:26.596Z,1.10
2019-01-21T05:44:32.851Z,2.20
2019-01-21T05:47:44.773Z,2.00
2019-01-21T05:50:52.144Z,1.40
2019-01-21T05:53:55.640Z,1.47
2019-01-21T05:57:18.651Z,1.17
2019-01-21T06:00:24.253Z,4.17
2019-01-21T06:03:39.019Z,1.87
2019-01-21T06:07:02.385Z,1.50
2019-01-21T06:10:01.404Z,2.60
2019-01-21T06:13:19.236Z,3.03
2019-01-21T06:16:25.390Z,1.00
2019-01-21T06:19:40.685Z,2.13
2019-01-21T06:22:48.130Z,1.63
2019-01-21T06:25:46.961Z,1.83
2019-01-21T06:28:50.765Z,1.63
2019-01-21T06:31:47.655Z,2.63
2019-01-21T06:35:03.793Z,1.10
2019-01-21T06:37:58.718Z,1.10
2019-01-21T06:41:28.265Z,3.10
2019-01-21T06:44:38.525Z,3.23
2019-01-21T06:48:02.384Z,1.77
2019-01-21T06:51:26.671Z,1.50
2019-01-21T06:54:40.587Z,1.60
2019-01-21T06:57:56.653Z,1.83
2019-01-21T07:01:06.765Z,0.90
2019-01-21T07:04:36.798Z,0.93
2019-01-21T07:07:45.895Z,1.47
2019-01-21T07:10:58.644Z,0.70
2019-01-21T07:14:00.915Z,1.03
2019-01-21T07:16:56.772Z,2.00
2019-01-21T07:19:56.567Z,4.03
2019-01-21T07:22:44.828Z,5.13
2019-01-21T07:25:26.467Z,1.27
2019-01-21T07:28:50.283Z,2.20
2019-01-21T07:31:58.687Z,1.23
2019-01-21T07:35:22.745Z,1.53
2019-01-21T07:38:37.237Z,2.83
2019-01-21T07:41:54.505Z,1.63
2019-01-21T07:45:04.328Z,1.67
2019-01-21T07:48:13.051Z,1.23
2019-01-21T07:51:26.105Z,1.87
2019-01-21T07:54:37.908Z,2.17
2019-01-21T07:58:19.986Z,1.83
2019-01-21T08:01:24.151Z,1.20
2019-01-21T08:04:15.243Z,1.53
2019-01-21T08:07:02.413Z,2.07
2019-01-21T08:10:21.909Z,1.77
2019-01-21T08:13:48.684Z,2.30
2019-01-21T08:17:11.406Z,1.27
2019-01-21T08:20:09.894Z,1.90
2019-01-21T08:23:30.502Z,1.47
2019-01-21T08:26:45.944Z,2.30
2019-01-21T08:29:54.059Z,2.03
2019-01-21T08:33:19.129Z,2.93
2019-01-21T08:36:14.492Z,3.17
2019-01-21T08:39:21.695Z,3.83
2019-01-21T08:42:18.965Z,2.33
2019-01-21T08:45:29.943Z,3.50
2019-01-21T08:48:23.653Z,2.80
2019-01-21T08:51:47.798Z,3.77
2019-01-21T08:54:44.142Z,3.33
2019-01-21T08:57:55.513Z,2.87
2019-01-21T09:01:12.160Z,1.90
2019-01-21T09:04:20.580Z,3.40
2019-01-21T09:07:37.046Z,4.70
2019-01-21T09:11:01.193Z,3.80
2019-01-21T09:14:06.750Z,3.50
2019-01-21T09:17:06.453Z,2.17
2019-01-21T09:20:15.099Z,2.77
2019-01-21T09:23:23.270Z,3.73
2019-01-21T09:26:14.310Z,2.03
2019-01-21T09:29:43.965Z,4.53
2019-01-21T09:33:04.798Z,3.30
2019-01-21T09:36:18.111Z,2.67
2019-01-21T09:39:25.514Z,3.23
2019-01-21T09:42:41.412Z,2.63
2019-01-21T09:45:41.429Z,3.20
2019-01-21T09:48:10.513Z,3.10
2019-01-21T09:50:41.743Z,2.47
2019-01-21T09:53:13.195Z,3.33
2019-01-21T09:55:47.890Z,2.67
2019-01-21T09:58:21.748Z,3.67
2019-01-21T10:00:53.041Z,2.57
2019-01-21T10:03:24.566Z,3.50
2019-01-21T10:06:00.290Z,2.57
2019-01-21T10:09:11.832Z,2.57
2019-01-21T10:12:32.896Z,4.80
2019-01-21T10:15:31.713Z,2.93
2019-01-21T10:18:36.228Z,3.07
2019-01-21T10:21:33.486Z,4.13
2019-01-21T10:25:12.433Z,4.10
2019-01-21T10:28:08.769Z,3.63
2019-01-21T10:31:11.264Z,2.37
2019-01-21T10:34:31.850Z,4.10
2019-01-21T10:37:46.761Z,3.50
2019-01-21T10:41:02.657Z,2.00
2019-01-21T10:44:10.082Z,1.77
2019-01-21T10:47:33.384Z,2.27
2019-01-21T10:50:47.522Z,3.03
2019-01-21T10:53:58.697Z,2.43
2019-01-21T10:57:14.301Z,2.03
2019-01-21T11:00:10.041Z,4.03
2019-01-21T11:03:09.635Z,3.77
2019-01-21T11:06:10.990Z,3.63
2019-01-21T11:09:26.760Z,3.53
2019-01-21T11:12:46.753Z,3.50
2019-01-21T11:15:51.907Z,5.77
2019-01-21T11:18:59.097Z,3.03
2019-01-21T11:22:10.528Z,3.13
2019-01-21T11:25:15.401Z,3.63
2019-01-21T11:28:22.713Z,6.30
2019-01-21T11:31:33.828Z,4.27
2019-01-21T11:34:29.822Z,3.77
2019-01-21T11:37:44.493Z,4.20
2019-01-21T11:40:51.868Z,1.93
2019-01-21T11:43:59.404Z,5.50
2019-01-21T11:47:11.675Z,2.60
2019-01-21T11:49:57.912Z,4.37
2019-01-21T11:52:59.280Z,3.60
2019-01-21T11:55:50.471Z,2.57
2019-01-21T11:58:57.380Z,2.27
2019-01-21T12:02:11.957Z,3.13
2019-01-21T12:05:04.765Z,4.40
2019-01-21T12:08:24.735Z,3.30
2019-01-21T12:11:23.958Z,2.50
2019-01-21T12:14:25.099Z,4.97
2019-01-21T12:17:34.949Z,4.07
2019-01-21T12:20:23.402Z,3.23
2019-01-21T12:23:26.347Z,3.40
2019-01-21T12:26:36.533Z,5.00
2019-01-21T12:30:12.203Z,3.57
2019-01-21T12:33:24.936Z,5.03
2019-01-21T12:36:06.609Z,5.50
2019-01-21T12:39:33.145Z,2.80
2019-01-21T12:42:35.641Z,4.33
2019-01-21T12:45:55.337Z,2.17
2019-01-21T12:49:16.225Z,3.33
2019-01-21T12:52:31.431Z,5.10
2019-01-21T12:55:43.002Z,3.67
2019-01-21T12:58:55.008Z,4.50
2019-01-21T13:01:50.889Z,4.93
2019-01-21T13:04:34.883Z,4.57
2019-01-21T13:07:58.577Z,2.77
2019-01-21T13:11:17.617Z,2.87
2019-01-21T13:14:19.121Z,3.93
2019-01-21T13:17:03.854Z,3.43
2019-01-21T13:20:36.627Z,11.27
2019-01-21T13:23:41.643Z,3.73
2019-01-21T13:26:48.169Z,3.40
2019-01-21T13:29:41.961Z,5.23
2019-01-21T13:32:43.594Z,6.27
2019-01-21T13:35:52.170Z,6.53
2019-01-21T13:39:18.321Z,6.93
2019-01-21T13:42:22.381Z,6.77
2019-01-21T13:45:35.787Z,4.37
2019-01-21T13:48:14.451Z,7.87
2019-01-21T13:51:37.778Z,5.10
2019-01-21T13:54:32.861Z,6.87
2019-01-21T13:57:34.052Z,8.00
2019-01-21T14:00:32.309Z,4.93
2019-01-21T14:04:02.145Z,8.07
2019-01-21T14:07:09.879Z,6.23
2019-01-21T14:10:30.673Z,7.07
2019-01-21T14:13:26.427Z,4.70
2019-01-21T14:16:31.633Z,6.17
2019-01-21T14:19:32.845Z,6.87
2019-01-21T14:22:44.053Z,5.80
2019-01-21T14:26:10.721Z,5.90
2019-01-21T14:29:28.306Z,6.50
2019-01-21T14:32:35.605Z,6.40
2019-01-21T14:36:00.486Z,8.73
2019-01-21T14:39:13.851Z,5.33
2019-01-21T14:42:49.718Z,5.97
2019-01-21T14:45:49.760Z,3.53
2019-01-21T14:48:52.878Z,5.47
2019-01-21T14:52:16.929Z,5.40
2019-01-21T14:55:28.020Z,4.47
2019-01-21T14:58:30.163Z,4.07
2019-01-21T15:01:28.894Z,4.13
2019-01-21T15:04:44.068Z,5.13
2019-01-21T15:07:41.290Z,4.30
2019-01-21T15:10:35.472Z,3.63
2019-01-21T15:13:49.304Z,6.37
2019-01-21T15:17:12.040Z,5.50
2019-01-21T15:20:05.287Z,4.60
2019-01-21T15:23:18.808Z,5.70
2019-01-21T15:26:38.050Z,4.80
2019-01-21T15:29:45.550Z,5.53
2019-01-21T15:32:42.933Z,4.47
2019-01-21T15:36:07.090Z,7.93
2019-01-21T15:39:11.572Z,4.90
2019-01-21T15:42:32.425Z,9.37
2019-01-21T15:45:53.904Z,9.13
2019-01-21T15:49:05.550Z,6.27
2019-01-21T15:52:23.373Z,6.97
2019-01-21T15:55:29.243Z,9.33
2019-01-21T15:58:43.122Z,4.73
2019-01-21T16:01:52.116Z,5.70
2019-01-21T16:04:37.692Z,8.20
2019-01-21T16:07:29.318Z,8.10
2019-01-21T16:10:45.777Z,8.33
2019-01-21T16:13:27.879Z,6.80
2019-01-21T16:16:51.303Z,7.00
2019-01-21T16:19:32.171Z,6.90
2019-01-21T16:22:55.755Z,7.63
2019-01-21T16:25:52.956Z,6.00
2019-01-21T16:29:07.299Z,9.67
2019-01-21T16:32:03.308Z,7.17
2019-01-21T16:34:52.807Z,7.13
2019-01-21T16:37:39.154Z,9.17
2019-01-21T16:41:08.906Z,6.03
2019-01-21T16:43:39.825Z,8.73
2019-01-21T16:46:10.690Z,6.83
2019-01-21T16:48:41.550Z,6.27
2019-01-21T16:51:12.174Z,9.90
2019-01-21T16:53:43.289Z,9.37
2019-01-21T16:56:14.517Z,9.03
2019-01-21T16:58:45.648Z,6.87
2019-01-21T17:01:16.506Z,14.27
2019-01-21T17:03:47.339Z,9.40
2019-01-21T17:06:18.367Z,11.20
2019-01-21T17:08:49.625Z,12.53
2019-01-21T17:11:20.322Z,8.73
2019-01-21T17:13:50.931Z,8.20
2019-01-21T17:16:22.140Z,12.93
2019-01-21T17:18:53.314Z,12.90
2019-01-21T17:21:27.047Z,15.60
2019-01-21T17:23:57.268Z,8.73
2019-01-21T17:26:28.068Z,9.20
2019-01-21T17:28:58.684Z,10.20
2019-01-21T17:31:29.358Z,7.20
2019-01-21T17:34:00.448Z,9.03
2019-01-21T17:36:31.425Z,6.10
2019-01-21T17:39:02.477Z,9.53
2019-01-21T17:41:34.913Z,9.83
2019-01-21T17:44:06.328Z,9.17
2019-01-21T17:46:37.351Z,10.03
2019-01-21T17:49:08.549Z,14.97
2019-01-21T17:51:39.532Z,11.77
2019-01-21T17:54:10.532Z,13.43
2019-01-21T17:56:41.541Z,11.80
2019-01-21T17:59:12.172Z,9.97
2019-01-21T18:01:43.458Z,8.60
2019-01-21T18:04:14.353Z,10.20
2019-01-21T18:06:45.377Z,15.93
2019-01-21T18:09:16.397Z,17.10
2019-01-21T18:11:47.439Z,12.53
2019-01-21T18:14:18.475Z,17.00
2019-01-21T18:16:52.492Z,13.33
2019-01-21T18:19:23.093Z,13.43
2019-01-21T18:21:54.185Z,14.10
2019-01-21T18:24:25.138Z,11.77
2019-01-21T18:26:56.077Z,11.73
2019-01-21T18:29:26.780Z,11.23
2019-01-21T18:31:57.815Z,14.77
2019-01-21T18:34:28.858Z,14.07
2019-01-21T18:37:00.041Z,11.50
2019-01-21T18:39:30.752Z,12.27
2019-01-21T18:42:02.715Z,9.03
2019-01-21T18:44:33.428Z,10.67
2019-01-21T18:47:06.541Z,11.37
2019-01-21T18:49:37.863Z,12.67
2019-01-21T18:52:08.757Z,12.07
2019-01-21T18:54:39.396Z,16.97
2019-01-21T18:57:10.483Z,14.30
2019-01-21T18:59:41.333Z,12.50
2019-01-21T19:02:12.523Z,12.23
2019-01-21T19:04:43.464Z,15.23
2019-01-21T19:07:14.476Z,12.30
2019-01-21T19:09:45.266Z,12.00
2019-01-21T19:12:16.316Z,12.63
2019-01-21T19:14:47.033Z,15.43
2019-01-21T19:17:18.118Z,9.93
2019-01-21T19:19:50.869Z,12.23
2019-01-21T19:22:22.212Z,10.27
2019-01-21T19:24:53.053Z,8.63
2019-01-21T19:27:23.724Z,13.67
2019-01-21T19:29:54.943Z,13.73
2019-01-21T19:32:25.746Z,12.10
2019-01-21T19:34:56.721Z,12.00
2019-01-21T19:37:27.809Z,11.23
2019-01-21T19:39:58.923Z,12.60
2019-01-21T19:42:30.288Z,10.70
2019-01-21T19:45:02.448Z,12.50
2019-01-21T19:47:34.278Z,11.40
2019-01-21T19:50:30.093Z,14.33
2019-01-21T19:53:01.200Z,14.90
2019-01-21T19:55:37.570Z,14.90
2019-01-21T19:58:09.953Z,19.20
2019-01-21T20:00:41.152Z,16.00
2019-01-21T20:03:12.386Z,16.73
2019-01-21T20:05:44.976Z,15.17
2019-01-21T20:08:16.236Z,14.23
2019-01-21T20:10:46.980Z,18.93
2019-01-21T20:13:17.999Z,17.70
2019-01-21T20:15:49.015Z,15.70
2019-01-21T20:18:19.865Z,15.67
2019-01-21T20:20:51.133Z,14.97
2019-01-21T20:23:22.157Z,18.93
2019-01-21T20:25:53.289Z,14.20
2019-01-21T20:28:24.441Z,15.33
2019-01-21T20:30:55.155Z,13.57
2019-01-21T20:33:27.009Z,15.83
2019-01-21T20:35:57.820Z,18.93
2019-01-21T20:38:28.992Z,13.87
2019-01-21T20:40:59.993Z,12.60
2019-01-21T20:43:31.402Z,15.67
2019-01-21T20:46:02.385Z,16.93
2019-01-21T20:48:33.110Z,13.03
2019-01-21T20:51:04.101Z,16.57
2019-01-21T20:53:35.105Z,18.33
2019-01-21T20:56:05.963Z,14.80
2019-01-21T20:58:36.537Z,17.37
2019-01-21T21:01:07.465Z,14.37
2019-01-21T21:03:38.965Z,14.13
2019-01-21T21:06:09.664Z,19.17
2019-01-21T21:08:40.849Z,15.10
2019-01-21T21:11:11.671Z,15.97
2019-01-21T21:13:42.895Z,15.57
2019-01-21T21:16:13.644Z,14.13
2019-01-21T21:18:46.644Z,15.07
2019-01-21T21:21:17.791Z,12.23
2019-01-21T21:23:48.681Z,11.37
2019-01-21T21:26:19.550Z,10.30
2019-01-21T21:28:50.658Z,12.63
2019-01-21T21:31:21.510Z,14.73
2019-01-21T21:33:52.242Z,14.00
2019-01-21T21:36:23.152Z,13.30
2019-01-21T21:38:54.173Z,14.57
2019-01-21T21:41:25.153Z,16.27
2019-01-21T21:43:56.333Z,11.97
2019-01-21T21:46:28.441Z,12.20
2019-01-21T21:49:00.161Z,12.70
2019-01-21T21:51:31.277Z,12.80
2019-01-21T21:54:02.169Z,11.83
2019-01-21T21:56:33.316Z,13.27
2019-01-21T21:59:05.480Z,10.40
2019-01-21T22:01:40.074Z,11.27
2019-01-21T22:04:09.046Z,11.93
2019-01-21T22:06:39.992Z,12.13
2019-01-21T22:09:10.777Z,9.93
2019-01-21T22:11:41.914Z,12.37
2019-01-21T22:14:12.971Z,13.97
2019-01-21T22:16:43.667Z,10.93
2019-01-21T22:19:14.614Z,11.80
2019-01-21T22:21:45.484Z,11.80
2019-01-21T22:24:16.583Z,9.30
2019-01-21T22:26:47.390Z,9.80
2019-01-21T22:29:18.429Z,10.63
2019-01-21T22:31:49.167Z,8.80
2019-01-21T22:34:20.153Z,10.83
2019-01-21T22:36:52.285Z,10.63
2019-01-21T22:39:24.865Z,12.73
2019-01-21T22:41:57.551Z,12.63
2019-01-21T22:44:28.311Z,11.47
2019-01-21T22:46:59.349Z,15.33
2019-01-21T22:49:30.172Z,16.23
2019-01-21T22:52:01.021Z,16.13
2019-01-21T22:54:32.185Z,13.63
2019-01-21T22:57:03.501Z,13.77
2019-01-21T22:59:34.247Z,14.50
2019-01-21T23:02:05.781Z,17.77
2019-01-21T23:04:36.624Z,15.30
2019-01-21T23:07:07.550Z,12.03
2019-01-21T23:09:38.640Z,14.60
2019-01-21T23:12:09.293Z,12.67
2019-01-21T23:14:40.097Z,16.53
2019-01-21T23:17:10.888Z,15.20
2019-01-21T23:19:43.080Z,12.80
2019-01-21T23:22:14.049Z,18.03
2019-01-21T23:24:46.157Z,13.77
2019-01-21T23:27:17.732Z,14.77
2019-01-21T23:29:48.581Z,15.03
2019-01-21T23:32:21.168Z,9.93
2019-01-21T23:34:52.247Z,13.20
2019-01-21T23:37:23.118Z,14.03
2019-01-21T23:39:54.083Z,12.73
2019-01-21T23:42:25.520Z,11.00
2019-01-21T23:44:56.700Z,11.13
2019-01-21T23:47:27.909Z,12.10
2019-01-21T23:49:59.053Z,10.93
2019-01-21T23:52:30.096Z,11.40
2019-01-21T23:55:02.425Z,12.80
2019-01-21T23:57:33.540Z,11.40
